Time;durP1;ratioP1;P1;durP2;ratioP2;P2;SDS_P1;SDS_P2;PMS_P1;PMS_P2;Temp;Humidity;BMP_temperature;BMP_pressure;BME280_temperature;BME280_humidity;BME280_pressure;Samples;Min_cycle;Max_cycle;Signal;HPM_P1;HPM_P2
2022/06/30 00:00:33;;;;;;;;;;;;;;;22.26;64.23;100668.59;7400738;19;1886;-36
2022/06/30 00:03:17;;;;;;;;;;;;;;;22.16;64.67;100666.84;7404375;19;1788;-36
2022/06/30 00:06:12;;;;;;;;;;;;;;;22.02;65.25;100664.72;7404164;19;1442;-35
2022/06/30 00:08:42;;;;;;;;;;;;;;;22.08;64.70;100669.47;7405170;19;1757;-36
2022/06/30 00:11:21;;;;;;;;;;;;;;;22.07;64.55;100670.47;7404259;19;1575;-36
2022/06/30 00:13:52;;;;;;;;;;;;;;;22.07;64.76;100654.31;7404260;19;1564;-36
2022/06/30 00:16:22;;;;;;;;;;;;;;;22.02;64.55;100657.50;7404162;19;1806;-36
2022/06/30 00:18:51;;;;;;;;;;;;;;;22.05;64.34;100657.16;7404921;19;1854;-36
2022/06/30 00:21:27;;;;;;;;;;;;;;;22.14;64.21;100673.38;7404102;19;1947;-36
2022/06/30 00:24:00;;;;;;;;;;;;;;;22.27;63.94;100654.13;7402090;19;1791;-36
2022/06/30 00:26:31;;;;;;;;;;;;;;;22.34;63.81;100657.88;7403978;19;1641;-36
2022/06/30 00:29:01;;;;;;;;;;;;;;;22.32;64.08;100649.09;7403764;19;1677;-35
2022/06/30 00:31:51;;;;;;;;;;;;;;;22.38;63.79;100664.63;7404335;19;1648;-36
2022/06/30 00:34:23;;;;;;;;;;;;;;;22.34;63.42;100655.16;7404072;19;1720;-36
2022/06/30 00:36:59;;;;;;;;;;;;;;;22.43;63.65;100651.53;7404005;19;1527;-37
2022/06/30 00:39:34;;;;;;;;;;;;;;;22.35;63.29;100654.19;7404113;19;1853;-36
2022/06/30 00:42:03;;;;;;;;;;;;;;;22.45;63.42;100671.06;7403623;19;1765;-36
2022/06/30 00:44:36;;;;;;;;;;;;;;;22.40;63.26;100657.22;7404545;19;1457;-36
2022/06/30 00:47:12;;;;;;;;;;;;;;;22.43;63.65;100648.81;7404293;19;1827;-36
2022/06/30 00:49:43;;;;;;;;;;;;;;;22.43;63.79;100654.22;7403587;19;1799;-36
2022/06/30 00:52:18;;;;;;;;;;;;;;;22.32;63.71;100658.03;7402959;19;1912;-36
2022/06/30 00:54:52;;;;;;;;;;;;;;;22.18;63.78;100667.53;7402513;19;1731;-36
2022/06/30 00:57:25;;;;;;;;;;;;;;;22.13;63.96;100658.22;7403649;19;1636;-36
2022/06/30 00:59:57;;;;;;;;;;;;;;;22.09;64.09;100648.78;7400998;19;1862;-37
2022/06/30 01:02:36;;;;;;;;;;;;;;;22.28;63.53;100661.19;7399606;19;3250;-36
2022/06/30 01:05:05;;;;;;;;;;;;;;;22.17;64.19;100652.34;7404535;19;1828;-36
2022/06/30 01:13:24;;;;;;;;;;;;;;;22.23;63.74;100654.41;7402926;19;1761;-36
2022/06/30 01:15:55;;;;;;;;;;;;;;;22.27;63.33;100656.84;7401002;19;1815;-36
2022/06/30 01:18:29;;;;;;;;;;;;;;;22.33;63.20;100661.56;7403038;19;1725;-36
2022/06/30 01:21:05;;;;;;;;;;;;;;;22.23;63.19;100672.44;7399707;19;1954;-35
2022/06/30 01:23:49;;;;;;;;;;;;;;;22.26;63.19;100666.75;7401892;19;1771;-36
2022/06/30 01:26:24;;;;;;;;;;;;;;;22.27;63.32;100662.22;7401413;19;1743;-36
2022/06/30 01:28:55;;;;;;;;;;;;;;;22.24;63.19;100674.13;7400604;19;1670;-36
2022/06/30 01:31:25;;;;;;;;;;;;;;;22.21;62.99;100680.66;7403035;19;1559;-36
2022/06/30 01:34:00;;;;;;;;;;;;;;;22.15;63.25;100667.00;7401492;19;1879;-36
2022/06/30 01:36:32;;;;;;;;;;;;;;;22.19;63.01;100661.13;7401577;19;1844;-36
2022/06/30 01:39:01;;;;;;;;;;;;;;;22.31;63.04;100677.06;7401478;19;1931;-36
2022/06/30 01:41:33;;;;;;;;;;;;;;;22.19;63.42;100679.13;7399635;19;1911;-36
2022/06/30 01:44:05;;;;;;;;;;;;;;;21.90;64.19;100674.88;7401573;19;1846;-35
2022/06/30 01:46:42;;;;;;;;;;;;;;;21.95;63.64;100671.75;7401062;19;1870;-36
2022/06/30 01:49:15;;;;;;;;;;;;;;;21.98;63.28;100658.78;7400534;19;1889;-36
2022/06/30 01:51:46;;;;;;;;;;;;;;;21.97;63.13;100681.34;7400872;19;1608;-36
2022/06/30 01:57:01;;;;;;;;;;;;;;;22.02;62.91;100664.72;7399148;19;1510;-36
2022/06/30 01:59:33;;;;;;;;;;;;;;;22.11;62.77;100653.00;7398299;19;1870;-36
2022/06/30 02:02:02;;;;;;;;;;;;;;;22.15;62.61;100662.44;7391526;19;3439;-67
2022/06/30 02:07:11;;;;;;;;;;;;;;;22.02;62.92;100664.72;7402522;19;1328;-68
2022/06/30 02:09:39;;;;;;;;;;;;;;;21.79;63.29;100661.69;7403015;19;1387;-68
2022/06/30 02:14:53;;;;;;;;;;;;;;;21.62;63.26;100647.25;7403382;19;1374;-60
2022/06/30 02:17:21;;;;;;;;;;;;;;;21.60;63.45;100651.94;7403919;19;1336;-61
2022/06/30 02:19:50;;;;;;;;;;;;;;;21.59;63.48;100647.59;7403924;19;1855;-68
2022/06/30 02:22:18;;;;;;;;;;;;;;;21.59;63.75;100655.66;7403016;19;1334;-60
2022/06/30 02:24:47;;;;;;;;;;;;;;;21.63;63.57;100659.72;7404458;19;1292;-60
2022/06/30 02:27:20;;;;;;;;;;;;;;;21.62;63.65;100656.16;7403665;19;1687;-68
2022/06/30 02:29:48;;;;;;;;;;;;;;;21.56;64.02;100664.03;7402058;19;1584;-60
2022/06/30 02:32:17;;;;;;;;;;;;;;;21.70;63.71;100663.47;7402559;19;1544;-60
2022/06/30 02:34:45;;;;;;;;;;;;;;;21.85;63.14;100653.00;7394392;19;1394;-68
2022/06/30 02:37:14;;;;;;;;;;;;;;;22.01;63.03;100654.97;7399350;19;1213;-67
2022/06/30 02:39:42;;;;;;;;;;;;;;;22.05;63.01;100676.00;7400312;19;1853;-59
2022/06/30 02:42:10;;;;;;;;;;;;;;;22.01;62.88;100661.19;7400982;19;1665;-61
2022/06/30 02:44:41;;;;;;;;;;;;;;;22.03;62.85;100656.47;7403878;19;1179;-68
2022/06/30 02:47:10;;;;;;;;;;;;;;;21.84;63.27;100648.59;7406478;19;1270;-60
2022/06/30 02:49:39;;;;;;;;;;;;;;;21.90;63.06;100661.44;7409616;19;1603;-60
2022/06/30 02:52:08;;;;;;;;;;;;;;;21.93;63.01;100660.28;7407140;19;1637;-68
2022/06/30 02:54:37;;;;;;;;;;;;;;;21.99;62.79;100656.97;7407966;19;1757;-60
2022/06/30 02:57:05;;;;;;;;;;;;;;;22.10;62.56;100667.44;7409106;19;1713;-68
2022/06/30 02:59:33;;;;;;;;;;;;;;;22.10;62.77;100667.44;7407419;19;1511;-68
2022/06/30 03:02:04;;;;;;;;;;;;;;;22.07;62.68;100661.56;7406966;19;1304;-67
2022/06/30 03:04:33;;;;;;;;;;;;;;;22.07;62.46;100664.25;7410423;19;1366;-60
2022/06/30 03:07:01;;;;;;;;;;;;;;;22.06;62.55;100671.47;7410280;19;1308;-60
2022/06/30 03:09:29;;;;;;;;;;;;;;;22.01;62.77;100679.19;7411322;19;1449;-60
2022/06/30 03:11:58;;;;;;;;;;;;;;;22.00;62.59;100658.63;7409825;19;1525;-61
2022/06/30 03:14:26;;;;;;;;;;;;;;;22.04;62.62;100657.31;7410140;19;1525;-68
2022/06/30 03:16:54;;;;;;;;;;;;;;;22.09;62.86;100660.38;7410716;19;1355;-69
2022/06/30 03:19:25;;;;;;;;;;;;;;;22.07;62.83;100656.19;7409071;19;1705;-68
2022/06/30 03:21:54;;;;;;;;;;;;;;;22.14;62.68;100655.34;7406936;19;2247;-68
2022/06/30 03:24:23;;;;;;;;;;;;;;;22.15;62.66;100656.22;7409301;19;1601;-68
2022/06/30 03:26:51;;;;;;;;;;;;;;;22.13;63.02;100666.31;7410605;19;1543;-60
2022/06/30 03:29:19;;;;;;;;;;;;;;;22.07;63.21;100659.69;7409145;19;1652;-68
2022/06/30 03:31:48;;;;;;;;;;;;;;;21.96;63.39;100649.19;7410159;19;1307;-68
2022/06/30 03:34:16;;;;;;;;;;;;;;;21.92;63.52;100654.03;7409219;19;1789;-68
2022/06/30 03:36:47;;;;;;;;;;;;;;;22.07;63.30;100678.56;7408938;19;1654;-60
2022/06/30 03:39:15;;;;;;;;;;;;;;;22.08;63.17;100657.84;7409117;19;1363;-69
2022/06/30 03:41:43;;;;;;;;;;;;;;;22.12;62.84;100657.38;7407181;19;1865;-69
2022/06/30 03:44:13;;;;;;;;;;;;;;;22.18;62.84;100664.84;7409083;19;1548;-68
2022/06/30 03:46:41;;;;;;;;;;;;;;;22.12;62.86;100670.81;7409143;19;1554;-60
2022/06/30 03:49:09;;;;;;;;;;;;;;;22.18;62.93;100656.75;7408582;19;1618;-60
2022/06/30 03:51:38;;;;;;;;;;;;;;;22.26;62.55;100668.59;7408112;19;1480;-60
2022/06/30 03:54:09;;;;;;;;;;;;;;;22.29;62.81;100673.69;7405200;19;1608;-68
2022/06/30 03:56:37;;;;;;;;;;;;;;;22.27;62.75;100665.75;7409262;19;1280;-68
2022/06/30 03:59:05;;;;;;;;;;;;;;;22.29;62.69;100666.44;7408686;19;1497;-69
2022/06/30 04:01:33;;;;;;;;;;;;;;;22.22;62.94;100650.03;7407109;19;1852;-67
2022/06/30 04:04:02;;;;;;;;;;;;;;;22.17;62.99;100668.53;7409088;19;1303;-60
2022/06/30 04:06:30;;;;;;;;;;;;;;;22.17;63.36;100679.28;7405987;19;1334;-68
2022/06/30 04:08:58;;;;;;;;;;;;;;;22.30;62.80;100678.03;7408083;19;1685;-68
2022/06/30 04:11:29;;;;;;;;;;;;;;;22.15;63.31;100702.84;7408306;19;1293;-60
2022/06/30 04:13:57;;;;;;;;;;;;;;;22.16;63.35;100676.75;7408224;19;1279;-68
2022/06/30 04:16:26;;;;;;;;;;;;;;;22.19;63.10;100688.06;7407514;19;1509;-60
2022/06/30 04:18:56;;;;;;;;;;;;;;;22.11;63.69;100687.16;7407220;19;1705;-68
2022/06/30 04:21:24;;;;;;;;;;;;;;;22.12;63.83;100687.00;7406958;19;2467;-69
2022/06/30 04:23:52;;;;;;;;;;;;;;;22.24;63.46;100687.59;7408009;19;1356;-68
2022/06/30 04:26:21;;;;;;;;;;;;;;;22.21;63.49;100691.44;7407408;19;1552;-68
2022/06/30 04:28:51;;;;;;;;;;;;;;;22.12;63.72;100676.22;7406662;19;1552;-68
2022/06/30 04:34:00;;;;;;;;;;;;;;;22.28;63.19;100696.22;7408053;19;1442;-60
2022/06/30 04:36:29;;;;;;;;;;;;;;;22.16;63.51;100690.22;7408283;19;1422;-68
2022/06/30 04:38:58;;;;;;;;;;;;;;;22.32;63.26;100682.28;7407337;19;1652;-61
2022/06/30 04:41:24;;;;;;;;;;;;;;;22.54;62.54;100690.81;7405527;19;1862;-60
2022/06/30 04:43:55;;;;;;;;;;;;;;;22.67;62.28;100695.78;7408250;19;1386;-68
2022/06/30 04:46:24;;;;;;;;;;;;;;;22.71;62.28;100664.78;7406384;19;1525;-60
2022/06/30 04:48:53;;;;;;;;;;;;;;;22.75;62.11;100688.56;7406911;19;1641;-68
2022/06/30 04:51:21;;;;;;;;;;;;;;;22.74;62.46;100680.63;7403848;19;1286;-60
2022/06/30 04:53:50;;;;;;;;;;;;;;;22.60;62.92;100674.84;7403191;19;1296;-69
2022/06/30 04:56:18;;;;;;;;;;;;;;;22.75;62.55;100676.94;7406531;19;1321;-60
2022/06/30 04:58:47;;;;;;;;;;;;;;;22.94;62.22;100697.38;7406042;19;1295;-67
2022/06/30 05:01:17;;;;;;;;;;;;;;;22.92;62.07;100681.38;7404474;19;1872;-69
2022/06/30 05:03:46;;;;;;;;;;;;;;;22.98;62.06;100683.41;7406075;19;1677;-60
2022/06/30 05:06:14;;;;;;;;;;;;;;;22.98;61.99;100686.13;7406719;19;1281;-69
2022/06/30 05:08:43;;;;;;;;;;;;;;;22.97;62.27;100687.13;7403011;19;1312;-60
2022/06/30 05:11:11;;;;;;;;;;;;;;;23.02;61.99;100684.81;7405519;19;1362;-69
2022/06/30 05:13:40;;;;;;;;;;;;;;;23.13;61.82;100677.41;7406166;19;1382;-60
2022/06/30 05:16:08;;;;;;;;;;;;;;;23.17;61.85;100684.16;7405728;19;1505;-67
2022/06/30 05:18:39;;;;;;;;;;;;;;;23.29;61.76;100685.53;7405360;19;1649;-67
2022/06/30 05:21:07;;;;;;;;;;;;;;;23.37;61.82;100696.34;7404582;19;1842;-69
2022/06/30 05:23:35;;;;;;;;;;;;;;;23.46;61.86;100674.75;7407621;19;1295;-59
2022/06/30 05:28:44;;;;;;;;;;;;;;;23.48;61.83;100678.16;7407479;19;1314;-66
2022/06/30 05:31:13;;;;;;;;;;;;;;;23.53;61.96;100681.19;7405265;19;1284;-66
2022/06/30 05:33:44;;;;;;;;;;;;;;;23.58;62.40;100700.44;7406372;19;1342;-65
2022/06/30 05:36:12;;;;;;;;;;;;;;;23.49;62.31;100693.34;7404710;19;1501;-68
2022/06/30 05:38:40;;;;;;;;;;;;;;;23.54;62.26;100686.44;7402630;19;1551;-58
2022/06/30 05:41:08;;;;;;;;;;;;;;;23.63;62.61;100692.66;7402725;19;1878;-60
2022/06/30 05:43:37;;;;;;;;;;;;;;;23.72;62.46;100707.88;7403627;19;1272;-56
2022/06/30 05:46:05;;;;;;;;;;;;;;;23.63;62.81;100698.94;7403077;19;1493;-60
2022/06/30 05:48:33;;;;;;;;;;;;;;;23.69;62.84;100705.50;7404217;19;1389;-60
2022/06/30 05:51:04;;;;;;;;;;;;;;;23.70;63.59;100701.78;7402989;19;1343;-65
2022/06/30 05:53:32;;;;;;;;;;;;;;;23.78;63.59;100706.38;7403439;19;1617;-57
2022/06/30 05:56:01;;;;;;;;;;;;;;;23.79;63.23;100717.00;7405019;19;1501;-62
2022/06/30 05:58:29;;;;;;;;;;;;;;;23.80;63.91;100721.41;7405455;19;1419;-62
2022/06/30 06:00:57;;;;;;;;;;;;;;;23.80;63.46;100723.25;7402323;19;1871;-62
2022/06/30 06:03:25;;;;;;;;;;;;;;;23.76;63.34;100721.88;7404358;19;1547;-63
2022/06/30 06:05:54;;;;;;;;;;;;;;;23.73;63.37;100723.03;7403493;19;1555;-55
2022/06/30 06:08:25;;;;;;;;;;;;;;;23.79;63.95;100722.41;7402851;19;1609;-58
2022/06/30 06:10:53;;;;;;;;;;;;;;;23.82;63.52;100723.94;7403924;19;1390;-62
2022/06/30 06:13:21;;;;;;;;;;;;;;;23.80;63.62;100724.09;7404190;19;1552;-57
2022/06/30 06:15:50;;;;;;;;;;;;;;;23.80;63.91;100710.59;7403069;19;1532;-59
2022/06/30 06:18:18;;;;;;;;;;;;;;;23.89;64.48;100718.69;7401468;19;1477;-62
2022/06/30 06:20:46;;;;;;;;;;;;;;;23.93;65.14;100720.03;7404734;19;1854;-57
2022/06/30 06:23:14;;;;;;;;;;;;;;;23.86;65.19;100705.53;7409754;19;1553;-57
2022/06/30 06:25:45;;;;;;;;;;;;;;;23.91;65.15;100705.88;7410849;19;1563;-63
2022/06/30 06:30:54;;;;;;;;;;;;;;;23.90;64.98;100715.84;7410243;19;1555;-62
2022/06/30 06:33:22;;;;;;;;;;;;;;;23.98;65.89;100706.88;7410999;19;1418;-62
2022/06/30 06:35:51;;;;;;;;;;;;;;;24.06;65.89;100719.53;7409179;19;1574;-62
2022/06/30 06:38:19;;;;;;;;;;;;;;;24.11;66.20;100706.34;7410500;19;1290;-61
2022/06/30 06:40:50;;;;;;;;;;;;;;;24.07;65.66;100715.81;7408158;19;1873;-60
2022/06/30 06:43:18;;;;;;;;;;;;;;;23.98;66.04;100706.88;7410158;19;1477;-60
2022/06/30 06:45:46;;;;;;;;;;;;;;;23.97;65.66;100710.59;7409440;19;1578;-63
2022/06/30 06:48:15;;;;;;;;;;;;;;;23.94;65.77;100689.34;7405909;19;1626;-63
2022/06/30 06:50:43;;;;;;;;;;;;;;;23.93;65.77;100693.03;7410222;19;1649;-59
2022/06/30 06:53:11;;;;;;;;;;;;;;;23.92;65.71;100699.47;7408978;19;1637;-63
2022/06/30 06:55:39;;;;;;;;;;;;;;;23.90;65.56;100702.31;7409293;19;1371;-61
2022/06/30 06:58:11;;;;;;;;;;;;;;;23.89;65.78;100702.50;7408912;19;1629;-63
2022/06/30 07:00:39;;;;;;;;;;;;;;;23.89;65.66;100702.50;7407872;19;1776;-63
2022/06/30 07:03:07;;;;;;;;;;;;;;;23.92;65.79;100696.75;7407596;19;1843;-61
2022/06/30 07:05:36;;;;;;;;;;;;;;;23.91;65.99;100706.69;7411266;19;1453;-62
2022/06/30 07:08:05;;;;;;;;;;;;;;;23.94;66.08;100727.16;7410543;19;1558;-61
2022/06/30 07:10:33;;;;;;;;;;;;;;;23.93;66.22;100710.06;7408192;19;1438;-62
2022/06/30 07:13:01;;;;;;;;;;;;;;;23.92;65.84;100696.75;7411498;19;1617;-62
2022/06/30 07:15:33;;;;;;;;;;;;;;;23.92;66.25;100700.28;7409489;19;1370;-62
2022/06/30 07:18:02;;;;;;;;;;;;;;;23.92;65.92;100696.75;7410090;19;1591;-62
2022/06/30 07:20:31;;;;;;;;;;;;;;;23.93;65.66;100706.53;7411011;19;1556;-62
2022/06/30 07:22:59;;;;;;;;;;;;;;;23.90;66.13;100705.03;7408687;19;1845;-62
2022/06/30 07:25:27;;;;;;;;;;;;;;;23.91;65.89;100689.66;7407768;19;1752;-63
2022/06/30 07:27:56;;;;;;;;;;;;;;;23.94;66.11;100694.72;7410400;19;1009;-63
2022/06/30 07:30:25;;;;;;;;;;;;;;;23.92;66.23;100689.50;7408737;19;1642;-62
2022/06/30 07:32:56;;;;;;;;;;;;;;;23.91;66.11;100695.06;7408588;19;1531;-62
2022/06/30 07:35:24;;;;;;;;;;;;;;;23.93;65.95;100696.56;7409679;19;1528;-62
2022/06/30 07:37:52;;;;;;;;;;;;;;;23.91;65.90;100687.78;7408396;19;1442;-62
2022/06/30 07:40:21;;;;;;;;;;;;;;;23.91;65.93;100681.56;7408250;19;1618;-62
2022/06/30 07:42:49;;;;;;;;;;;;;;;23.90;65.78;100683.41;7408402;19;1844;-62
2022/06/30 07:45:17;;;;;;;;;;;;;;;23.89;65.95;100686.28;7408273;19;1258;-61
2022/06/30 07:47:46;;;;;;;;;;;;;;;23.89;66.06;100686.28;7408600;19;1425;-60
2022/06/30 07:50:17;;;;;;;;;;;;;;;23.95;65.92;100699.09;7408499;19;1755;-59
2022/06/30 07:52:45;;;;;;;;;;;;;;;23.09;66.96;100705.72;7409700;19;1312;-59
2022/06/30 07:55:14;;;;;;;;;;;;;;;22.08;66.51;100707.16;7407112;19;1541;-60
2022/06/30 07:57:45;;;;;;;;;;;;;;;21.45;66.06;100703.63;7409659;19;1555;-59
2022/06/30 08:00:14;;;;;;;;;;;;;;;21.13;64.99;100706.78;7406936;19;1568;-60
2022/06/30 08:02:42;;;;;;;;;;;;;;;21.05;63.86;100706.69;7402943;19;1863;-59
2022/06/30 08:05:11;;;;;;;;;;;;;;;21.03;62.77;100704.16;7408126;19;1375;-61
2022/06/30 08:07:42;;;;;;;;;;;;;;;21.07;62.88;100699.31;7407863;19;1557;-59
2022/06/30 08:10:11;;;;;;;;;;;;;;;21.07;62.50;100696.63;7409072;19;1477;-59
2022/06/30 08:12:39;;;;;;;;;;;;;;;21.08;63.42;100698.31;7408491;19;1765;-59
2022/06/30 08:15:08;;;;;;;;;;;;;;;21.11;63.67;100697.16;7408431;19;1642;-60
2022/06/30 08:17:37;;;;;;;;;;;;;;;20.98;63.03;100698.38;7407645;19;1645;-59
2022/06/30 08:20:06;;;;;;;;;;;;;;;20.76;62.31;100693.41;7406781;19;1500;-61
2022/06/30 08:22:34;;;;;;;;;;;;;;;20.66;61.57;100696.13;7406975;19;1866;-61
2022/06/30 08:25:05;;;;;;;;;;;;;;;20.62;60.56;100692.06;7407500;19;1641;-60
2022/06/30 08:27:33;;;;;;;;;;;;;;;20.67;60.21;100689.75;7408288;19;1375;-61
2022/06/30 08:30:02;;;;;;;;;;;;;;;20.82;60.37;100687.44;7406693;19;1501;-53
2022/06/30 08:32:30;;;;;;;;;;;;;;;20.82;61.42;100700.88;7406569;19;1681;-60
2022/06/30 08:34:59;;;;;;;;;;;;;;;20.87;62.62;100685.16;7404976;19;1510;-58
2022/06/30 08:37:27;;;;;;;;;;;;;;;20.91;62.74;100681.16;7405294;19;1532;-64
2022/06/30 08:42:40;;;;;;;;;;;;;;;20.76;62.16;100671.91;7405277;19;1861;-59
2022/06/30 08:45:20;;;;;;;;;;;;;;;20.86;63.02;100678.91;7404440;19;1501;-63
2022/06/30 08:47:50;;;;;;;;;;;;;;;21.24;63.23;100670.75;7405740;19;1291;-62
2022/06/30 08:50:19;;;;;;;;;;;;;;;21.33;64.55;100677.03;7406124;19;1358;-59
2022/06/30 08:52:50;;;;;;;;;;;;;;;21.40;65.38;100673.59;7407681;19;1370;-60
2022/06/30 08:55:18;;;;;;;;;;;;;;;21.31;65.31;100679.03;7404378;19;1533;-57
2022/06/30 08:57:50;;;;;;;;;;;;;;;21.17;64.53;100680.41;7406128;19;1391;-63
2022/06/30 09:00:19;;;;;;;;;;;;;;;20.98;64.44;100660.72;7406520;19;1531;-66
2022/06/30 09:02:48;;;;;;;;;;;;;;;22.05;63.18;100659.03;7406333;19;1892;-58
2022/06/30 09:05:17;;;;;;;;;;;;;;;22.73;61.64;100668.16;7405391;19;1391;-58
2022/06/30 09:07:45;;;;;;;;;;;;;;;23.13;61.77;100680.94;7406690;19;1730;-64
2022/06/30 09:10:14;;;;;;;;;;;;;;;23.37;60.94;100672.06;7407316;19;1272;-59
2022/06/30 09:12:44;;;;;;;;;;;;;;;23.48;61.11;100680.88;7403868;19;1308;-59
2022/06/30 09:15:17;;;;;;;;;;;;;;;23.44;61.00;100666.84;7407310;19;1786;-59
2022/06/30 09:17:49;;;;;;;;;;;;;;;23.48;61.48;100664.66;7403195;19;1727;-62
2022/06/30 09:20:18;;;;;;;;;;;;;;;23.53;61.91;100648.81;7403508;19;1292;-61
2022/06/30 09:22:46;;;;;;;;;;;;;;;23.58;61.78;100657.25;7403783;19;1868;-52
2022/06/30 09:25:15;;;;;;;;;;;;;;;23.56;61.85;100670.06;7406139;19;1653;-60
2022/06/30 09:27:44;;;;;;;;;;;;;;;23.56;62.06;100643.91;7405407;19;1630;-60
2022/06/30 09:30:18;;;;;;;;;;;;;;;23.58;62.74;100652.69;7405640;19;1391;-60
2022/06/30 09:32:48;;;;;;;;;;;;;;;23.66;62.94;100645.59;7407319;19;1410;-59
2022/06/30 09:35:17;;;;;;;;;;;;;;;23.60;62.79;100649.81;7405825;19;1598;-59
2022/06/30 09:37:45;;;;;;;;;;;;;;;23.58;62.92;100652.69;7405748;19;1460;-59
2022/06/30 09:40:14;;;;;;;;;;;;;;;23.58;63.20;100646.44;7404139;19;1333;-64
2022/06/30 09:42:43;;;;;;;;;;;;;;;22.72;66.19;100645.75;7404195;19;1846;-57
2022/06/30 09:45:13;;;;;;;;;;;;;;;21.87;65.72;100639.38;7406057;19;1165;-61
2022/06/30 09:47:55;;;;;;;;;;;;;;;21.47;64.83;100644.28;7406100;19;1415;-59
2022/06/30 09:50:24;;;;;;;;;;;;;;;21.22;64.08;100653.91;7405764;19;1611;-58
2022/06/30 09:53:05;;;;;;;;;;;;;;;21.23;63.36;100652.94;7405671;19;1528;-64
2022/06/30 09:55:38;;;;;;;;;;;;;;;21.21;63.08;100649.56;7405577;19;1360;-59
2022/06/30 09:58:07;;;;;;;;;;;;;;;21.17;63.31;100649.00;7407119;19;1063;-58
2022/06/30 10:00:45;;;;;;;;;;;;;;;21.16;64.01;100641.09;7404365;19;1662;-64
2022/06/30 10:03:16;;;;;;;;;;;;;;;21.04;64.03;100652.06;7405346;19;1861;-59
2022/06/30 10:05:45;;;;;;;;;;;;;;;20.92;63.63;100650.59;7405158;19;1665;-58
2022/06/30 10:08:14;;;;;;;;;;;;;;;20.75;62.95;100646.00;7402339;19;1386;-61
2022/06/30 10:10:43;;;;;;;;;;;;;;;20.53;62.67;100650.78;7404343;19;1399;-64
2022/06/30 10:13:15;;;;;;;;;;;;;;;20.54;62.23;100620.22;7405996;19;1357;-59
2022/06/30 10:15:44;;;;;;;;;;;;;;;20.58;62.12;100643.09;7405246;19;1443;-61
2022/06/30 10:18:13;;;;;;;;;;;;;;;20.66;62.14;100628.97;7405520;19;1618;-64
2022/06/30 10:20:44;;;;;;;;;;;;;;;20.78;62.76;100626.91;7405969;19;1435;-59
2022/06/30 10:23:13;;;;;;;;;;;;;;;21.00;63.59;100631.00;7404988;19;1853;-65
2022/06/30 10:25:43;;;;;;;;;;;;;;;21.17;64.02;100632.00;7405288;19;1398;-65
2022/06/30 10:28:12;;;;;;;;;;;;;;;21.23;64.43;100642.19;7406701;19;1543;-65
2022/06/30 10:30:47;;;;;;;;;;;;;;;21.22;65.07;100630.56;7404516;19;1441;-58
2022/06/30 10:33:19;;;;;;;;;;;;;;;21.16;65.37;100635.72;7404017;19;1726;-59
2022/06/30 10:35:51;;;;;;;;;;;;;;;21.08;65.20;100641.00;7404399;19;1658;-59
2022/06/30 10:38:26;;;;;;;;;;;;;;;20.78;64.49;100627.75;7402313;19;1666;-59
2022/06/30 10:40:57;;;;;;;;;;;;;;;20.53;63.89;100623.91;7387379;19;1558;-65
2022/06/30 10:43:26;;;;;;;;;;;;;;;20.39;63.37;100621.69;7401563;19;1862;-65
2022/06/30 10:45:59;;;;;;;;;;;;;;;20.32;62.68;100612.56;7402552;19;1324;-58
2022/06/30 10:48:30;;;;;;;;;;;;;;;20.22;62.55;100629.53;7402400;19;1579;-59
2022/06/30 10:51:01;;;;;;;;;;;;;;;20.24;62.08;100606.06;7400998;19;1485;-58
2022/06/30 10:53:44;;;;;;;;;;;;;;;20.65;61.03;100620.06;7402591;19;1654;-59
2022/06/30 10:56:12;;;;;;;;;;;;;;;20.65;61.76;100606.63;7401327;19;1689;-65
2022/06/30 10:59:02;;;;;;;;;;;;;;;20.65;62.51;100603.94;7401826;19;1320;-58
2022/06/30 11:01:30;;;;;;;;;;;;;;;20.74;63.63;100601.34;7399248;19;1802;-66
2022/06/30 11:04:00;;;;;;;;;;;;;;;20.80;63.97;100611.47;7398894;19;1865;-59
2022/06/30 11:06:45;;;;;;;;;;;;;;;20.84;64.59;100573.38;7402041;19;1718;-59
2022/06/30 11:09:16;;;;;;;;;;;;;;;20.85;64.93;100595.75;7406130;19;1547;-65
2022/06/30 11:11:44;;;;;;;;;;;;;;;20.89;65.05;100586.41;7407373;19;1244;-59
2022/06/30 11:14:26;;;;;;;;;;;;;;;20.90;65.46;100597.97;7407094;19;1457;-65
2022/06/30 11:16:54;;;;;;;;;;;;;;;20.85;65.99;100585.00;7405862;19;1093;-59
2022/06/30 11:19:27;;;;;;;;;;;;;;;20.88;66.04;100568.56;7405833;19;1414;-65
2022/06/30 11:21:55;;;;;;;;;;;;;;;20.88;66.39;100598.13;7408211;19;1558;-59
2022/06/30 11:24:27;;;;;;;;;;;;;;;20.94;66.38;100586.75;7402604;19;1857;-59
2022/06/30 11:29:36;;;;;;;;;;;;;;;20.83;66.60;100586.97;7404686;19;1685;-59
2022/06/30 11:32:05;;;;;;;;;;;;;;;20.84;66.89;100577.94;7407577;19;1470;-63
2022/06/30 11:34:37;;;;;;;;;;;;;;;20.73;66.66;100584.38;7406208;19;1501;-65
2022/06/30 11:37:05;;;;;;;;;;;;;;;20.53;65.91;100589.00;7404080;19;1237;-65
2022/06/30 11:39:36;;;;;;;;;;;;;;;20.31;64.54;100582.16;7406515;19;1434;-59
2022/06/30 11:42:11;;;;;;;;;;;;;;;20.10;63.78;100586.94;7405801;19;1584;-64
2022/06/30 11:44:41;;;;;;;;;;;;;;;20.04;63.45;100569.56;7407648;19;1864;-65
2022/06/30 11:47:10;;;;;;;;;;;;;;;19.94;62.70;100568.75;7407523;19;1551;-65
2022/06/30 11:49:43;;;;;;;;;;;;;;;19.90;62.26;100567.38;7408320;19;1673;-58
2022/06/30 11:52:16;;;;;;;;;;;;;;;20.14;61.70;100564.16;7403748;19;1734;-59
2022/06/30 11:54:50;;;;;;;;;;;;;;;20.48;60.85;100561.72;7407141;19;1513;-58
2022/06/30 11:57:19;;;;;;;;;;;;;;;20.56;61.75;100564.50;7409542;19;1392;-65
2022/06/30 11:59:47;;;;;;;;;;;;;;;20.46;62.79;100553.81;7410351;19;1585;-59
2022/06/30 12:02:16;;;;;;;;;;;;;;;20.49;63.25;100543.75;7407751;19;1693;-65
2022/06/30 12:04:44;;;;;;;;;;;;;;;20.51;63.83;100545.28;7407619;19;1845;-65
2022/06/30 12:07:14;;;;;;;;;;;;;;;20.53;64.45;100559.44;7407947;19;1657;-65
2022/06/30 12:09:43;;;;;;;;;;;;;;;20.59;64.78;100549.94;7410620;19;1641;-65
2022/06/30 12:12:14;;;;;;;;;;;;;;;20.54;64.99;100539.63;7409451;19;1630;-65
2022/06/30 12:14:42;;;;;;;;;;;;;;;20.37;64.58;100548.50;7410731;19;984;-65
2022/06/30 12:17:12;;;;;;;;;;;;;;;20.15;63.81;100544.34;7409704;19;1678;-65
2022/06/30 12:19:41;;;;;;;;;;;;;;;19.92;63.51;100550.13;7408257;19;1787;-65
2022/06/30 12:22:10;;;;;;;;;;;;;;;20.16;62.16;100549.59;7408356;19;1453;-59
2022/06/30 12:24:39;;;;;;;;;;;;;;;20.43;61.58;100532.63;7406359;19;1859;-59
2022/06/30 12:27:08;;;;;;;;;;;;;;;20.71;61.76;100539.81;7406957;19;1379;-64
2022/06/30 12:29:38;;;;;;;;;;;;;;;21.55;60.21;100527.81;7405675;19;1749;-59
2022/06/30 12:32:10;;;;;;;;;;;;;;;22.18;61.89;100516.69;7405564;19;1309;-59
2022/06/30 12:34:50;;;;;;;;;;;;;;;22.56;60.35;100505.53;7407666;19;1770;-59
2022/06/30 12:37:19;;;;;;;;;;;;;;;22.79;59.67;100506.59;7407052;19;1470;-64
2022/06/30 12:39:48;;;;;;;;;;;;;;;22.80;59.83;100507.41;7407049;19;1584;-58
2022/06/30 12:42:16;;;;;;;;;;;;;;;22.87;59.36;100507.63;7407634;19;1637;-60
2022/06/30 12:44:47;;;;;;;;;;;;;;;22.89;59.42;100506.44;7407752;19;1822;-60
2022/06/30 12:47:17;;;;;;;;;;;;;;;22.91;59.68;100508.97;7407226;19;1755;-65
2022/06/30 12:49:46;;;;;;;;;;;;;;;23.03;60.11;100504.94;7409063;19;1717;-64
2022/06/30 12:52:16;;;;;;;;;;;;;;;23.02;59.71;100504.13;7404672;19;1642;-60
2022/06/30 12:54:54;;;;;;;;;;;;;;;22.98;60.33;100489.25;7404768;19;1621;-61
2022/06/30 12:57:23;;;;;;;;;;;;;;;23.11;59.84;100499.56;7406817;19;1490;-63
2022/06/30 12:59:55;;;;;;;;;;;;;;;23.06;60.11;100495.69;7407042;19;1436;-60
2022/06/30 13:02:24;;;;;;;;;;;;;;;23.05;60.02;100502.94;7403858;19;1614;-60
2022/06/30 13:04:55;;;;;;;;;;;;;;;23.07;60.03;100508.16;7405938;19;1849;-64
2022/06/30 13:07:23;;;;;;;;;;;;;;;23.08;60.03;100490.94;7405853;19;1386;-64
2022/06/30 13:09:52;;;;;;;;;;;;;;;23.09;59.89;100498.03;7407092;19;1328;-59
2022/06/30 13:12:21;;;;;;;;;;;;;;;23.03;60.30;100503.09;7404979;19;1787;-59
2022/06/30 13:14:49;;;;;;;;;;;;;;;23.05;60.09;100496.69;7408118;19;1600;-59
2022/06/30 13:17:20;;;;;;;;;;;;;;;23.08;60.14;100493.66;7405566;19;1635;-59
2022/06/30 13:19:48;;;;;;;;;;;;;;;23.09;60.25;100492.66;7403491;19;1784;-64
2022/06/30 13:22:16;;;;;;;;;;;;;;;23.09;60.27;100489.97;7402575;19;1386;-65
2022/06/30 13:24:45;;;;;;;;;;;;;;;23.10;60.35;100488.94;7403541;19;1856;-59
2022/06/30 13:27:15;;;;;;;;;;;;;;;23.18;60.88;100495.19;7403198;19;2100;-60
2022/06/30 13:29:43;;;;;;;;;;;;;;;23.13;60.83;100491.31;7402223;19;1378;-64